createdAt,value
2023-04-26T00:04:15.867Z,5.70
2023-04-26T00:09:44.842Z,5.70
2023-04-26T00:15:13.589Z,5.80
2023-04-26T00:20:41.556Z,5.70
2023-04-26T00:26:09.327Z,5.70
2023-04-26T00:37:06.435Z,5.70
2023-04-26T00:42:36.382Z,5.70
2023-04-26T00:48:05.311Z,5.70
2023-04-26T00:53:36.625Z,5.70
2023-04-26T00:59:05.775Z,5.70
2023-04-26T01:04:35.028Z,5.70
2023-04-26T01:10:06.497Z,5.80
2023-04-26T01:15:35.996Z,5.70
2023-04-26T01:21:05.409Z,5.60
2023-04-26T01:26:33.409Z,5.60
2023-04-26T01:32:01.427Z,5.50
2023-04-26T01:37:29.498Z,5.50
2023-04-26T01:43:03.362Z,5.40
2023-04-26T01:48:31.385Z,5.40
2023-04-26T01:54:02.125Z,5.30
2023-04-26T01:59:30.260Z,5.30
2023-04-26T02:04:59.980Z,5.30
2023-04-26T02:10:28.078Z,5.20
2023-04-26T02:15:56.271Z,5.20
2023-04-26T02:21:24.230Z,5.10
2023-04-26T02:26:53.096Z,5.10
2023-04-26T02:32:21.153Z,5.00
2023-04-26T02:37:49.477Z,4.90
2023-04-26T02:43:17.463Z,4.90
2023-04-26T02:48:45.618Z,4.80
2023-04-26T02:54:13.877Z,4.70
2023-04-26T02:59:41.704Z,4.70
2023-04-26T03:05:10.717Z,4.60
2023-04-26T03:10:38.888Z,4.60
2023-04-26T03:16:07.242Z,4.50
2023-04-26T03:21:35.509Z,4.50
2023-04-26T03:27:04.664Z,4.50
2023-04-26T03:32:33.206Z,4.50
2023-04-26T03:38:01.143Z,4.50
2023-04-26T03:43:29.160Z,4.50
2023-04-26T03:48:57.360Z,4.50
2023-04-26T03:54:26.381Z,4.50
2023-04-26T03:59:54.367Z,4.50
2023-04-26T04:05:22.487Z,4.50
2023-04-26T04:10:50.887Z,4.50
2023-04-26T04:16:18.859Z,4.50
2023-04-26T04:21:46.792Z,4.50
2023-04-26T04:27:15.051Z,4.50
2023-04-26T04:32:45.231Z,4.50
2023-04-26T04:38:14.365Z,4.50
2023-04-26T04:43:42.433Z,4.60
2023-04-26T04:49:12.792Z,4.50
2023-04-26T04:54:40.993Z,4.60
2023-04-26T05:00:10.846Z,4.60
2023-04-26T05:05:45.662Z,4.60
2023-04-26T05:11:13.515Z,4.60
2023-04-26T05:16:42.620Z,4.60
2023-04-26T05:22:10.624Z,4.70
2023-04-26T05:27:38.756Z,4.70
2023-04-26T05:33:29.446Z,4.80
2023-04-26T05:39:08.548Z,4.80
2023-04-26T05:44:37.522Z,4.90
2023-04-26T05:50:06.947Z,5.00
2023-04-26T05:55:34.846Z,5.00
2023-04-26T06:01:03.154Z,5.00
2023-04-26T06:06:32.208Z,5.10
2023-04-26T06:12:00.290Z,5.10
2023-04-26T06:17:28.578Z,5.20
2023-04-26T06:22:56.733Z,5.20
2023-04-26T06:28:25.583Z,5.30
2023-04-26T06:33:53.916Z,5.40
2023-04-26T06:39:22.150Z,5.40
2023-04-26T06:44:50.248Z,5.50
2023-04-26T06:50:18.478Z,5.70
2023-04-26T06:55:46.574Z,5.90
2023-04-26T07:01:14.352Z,6.30
2023-04-26T07:06:42.398Z,6.50
2023-04-26T07:12:14.033Z,6.70
2023-04-26T07:17:41.836Z,6.80
2023-04-26T07:23:09.599Z,6.80
2023-04-26T07:28:37.351Z,7.00
2023-04-26T07:34:05.202Z,7.20
2023-04-26T07:39:33.040Z,7.20
2023-04-26T07:45:01.103Z,7.30
2023-04-26T07:50:28.904Z,7.40
2023-04-26T07:55:56.726Z,7.60
2023-04-26T08:01:24.517Z,8.20
2023-04-26T08:06:52.327Z,8.50
2023-04-26T08:12:20.225Z,8.50
2023-04-26T08:17:48.595Z,8.90
2023-04-26T08:23:16.593Z,8.60
2023-04-26T08:28:44.569Z,8.60
2023-04-26T08:34:13.625Z,8.60
2023-04-26T08:39:41.803Z,8.80
2023-04-26T08:45:13.623Z,9.20
2023-04-26T08:50:47.769Z,9.30
2023-04-26T08:56:15.909Z,9.10
2023-04-26T09:01:45.015Z,9.00
2023-04-26T09:07:27.774Z,8.90
2023-04-26T09:12:56.645Z,8.90
2023-04-26T09:18:25.011Z,8.90
2023-04-26T09:24:11.384Z,8.80
2023-04-26T09:29:39.185Z,8.80
2023-04-26T09:35:09.177Z,9.00
2023-04-26T09:40:48.345Z,9.00
2023-04-26T09:46:26.847Z,9.10
2023-04-26T09:52:06.301Z,9.10
2023-04-26T09:57:44.584Z,9.30
2023-04-26T10:03:13.278Z,9.50
2023-04-26T10:08:41.377Z,9.80
2023-04-26T10:14:10.383Z,9.90
2023-04-26T10:19:44.184Z,9.80
2023-04-26T10:25:12.234Z,9.50
2023-04-26T10:30:58.459Z,9.50
2023-04-26T10:36:26.357Z,9.70
2023-04-26T10:42:32.437Z,9.70
2023-04-26T10:48:22.046Z,10.00
2023-04-26T10:53:52.350Z,10.40
2023-04-26T10:59:39.884Z,11.00
2023-04-26T11:05:09.900Z,11.80
2023-04-26T11:10:39.026Z,11.90
2023-04-26T11:16:09.518Z,12.30
2023-04-26T11:21:41.091Z,12.70
2023-04-26T11:27:12.498Z,13.20
2023-04-26T11:32:40.605Z,12.90
2023-04-26T11:38:09.471Z,12.50
2023-04-26T11:43:40.980Z,12.30
2023-04-26T11:49:12.860Z,12.10
2023-04-26T11:54:42.745Z,12.10
2023-04-26T12:00:17.571Z,12.00
2023-04-26T12:05:55.328Z,11.90
2023-04-26T12:11:23.262Z,12.00
2023-04-26T12:16:51.220Z,12.10
2023-04-26T12:22:24.376Z,12.00
2023-04-26T12:27:52.596Z,12.10
2023-04-26T12:33:23.123Z,12.40
2023-04-26T12:38:51.037Z,13.10
2023-04-26T12:44:21.252Z,13.30
2023-04-26T12:49:50.287Z,13.50
2023-04-26T12:55:20.200Z,12.90
2023-04-26T13:00:48.368Z,12.50
2023-04-26T13:06:16.205Z,12.40
2023-04-26T13:11:44.147Z,12.50
2023-04-26T13:17:12.397Z,13.10
2023-04-26T13:22:42.478Z,13.30
2023-04-26T13:28:10.317Z,13.30
2023-04-26T13:33:38.221Z,13.60
2023-04-26T13:39:07.417Z,13.80
2023-04-26T13:44:35.394Z,13.80
2023-04-26T13:50:04.466Z,13.40
2023-04-26T13:55:32.427Z,13.30
2023-04-26T14:01:00.193Z,13.40
2023-04-26T14:06:28.997Z,13.80
2023-04-26T14:12:07.194Z,13.90
2023-04-26T14:17:36.471Z,13.70
2023-04-26T14:23:04.429Z,13.80
2023-04-26T14:28:32.327Z,13.60
2023-04-26T14:34:00.195Z,13.30
2023-04-26T14:39:28.542Z,13.00
2023-04-26T14:44:59.579Z,12.80
2023-04-26T14:50:28.513Z,12.70
2023-04-26T14:56:00.261Z,12.60
2023-04-26T15:01:28.663Z,12.50
2023-04-26T15:06:57.335Z,12.40
2023-04-26T15:12:25.237Z,12.30
2023-04-26T15:23:21.149Z,11.90
2023-04-26T15:28:49.679Z,11.80
2023-04-26T15:34:18.642Z,11.80
2023-04-26T15:39:47.443Z,12.10
2023-04-26T15:45:15.670Z,12.20
2023-04-26T15:50:43.535Z,12.40
2023-04-26T15:56:16.037Z,12.50
2023-04-26T16:01:44.040Z,12.30
2023-04-26T16:07:11.919Z,12.20
2023-04-26T16:12:41.730Z,12.10
2023-04-26T16:18:10.042Z,12.00
2023-04-26T16:23:38.913Z,11.80
2023-04-26T16:29:06.880Z,11.80
2023-04-26T16:34:34.824Z,11.90
2023-04-26T16:40:05.194Z,12.00
2023-04-26T16:45:33.260Z,12.00
2023-04-26T16:51:04.870Z,11.90
2023-04-26T16:56:34.674Z,11.80
2023-04-26T17:02:02.872Z,11.70
2023-04-26T17:07:30.921Z,11.50
2023-04-26T17:13:00.040Z,11.40
2023-04-26T17:18:28.541Z,11.20
2023-04-26T17:23:56.663Z,11.00
2023-04-26T17:29:24.647Z,10.90
2023-04-26T17:34:52.619Z,10.80
2023-04-26T17:40:20.664Z,10.70
2023-04-26T17:45:48.894Z,10.50
2023-04-26T17:51:16.991Z,10.50
2023-04-26T17:56:45.224Z,10.40
2023-04-26T18:02:14.392Z,10.30
2023-04-26T18:07:42.583Z,10.20
2023-04-26T18:13:11.463Z,10.10
2023-04-26T18:18:39.364Z,10.00
2023-04-26T18:24:07.723Z,9.90
2023-04-26T18:29:35.819Z,9.80
2023-04-26T18:35:07.375Z,9.70
2023-04-26T18:40:35.821Z,9.60
2023-04-26T18:46:03.698Z,9.60
2023-04-26T18:51:32.802Z,9.50
2023-04-26T18:57:03.308Z,9.50
2023-04-26T19:02:31.571Z,9.40
2023-04-26T19:07:59.473Z,9.30
2023-04-26T19:13:28.313Z,9.30
2023-04-26T19:18:58.217Z,9.20
2023-04-26T19:24:26.056Z,9.20
2023-04-26T19:29:55.170Z,9.20
2023-04-26T19:35:24.036Z,9.10
2023-04-26T19:40:53.102Z,9.00
2023-04-26T19:46:22.045Z,8.90
2023-04-26T19:51:50.162Z,8.80
2023-04-26T19:57:17.985Z,8.70
2023-04-26T20:02:46.200Z,8.60
2023-04-26T20:08:14.539Z,8.50
2023-04-26T20:13:42.811Z,8.50
2023-04-26T20:19:10.702Z,8.40
2023-04-26T20:24:42.734Z,8.30
2023-04-26T20:30:12.152Z,8.20
2023-04-26T20:35:41.272Z,8.10
2023-04-26T20:41:10.213Z,7.90
2023-04-26T20:46:40.081Z,7.80
2023-04-26T20:52:08.343Z,7.70
2023-04-26T20:57:37.756Z,7.70
2023-04-26T21:03:05.719Z,7.60
2023-04-26T21:08:35.238Z,7.50
2023-04-26T21:14:04.465Z,7.50
2023-04-26T21:19:32.860Z,7.40
2023-04-26T21:25:00.998Z,7.30
2023-04-26T21:30:28.928Z,7.20
2023-04-26T21:35:58.310Z,7.20
2023-04-26T21:41:27.957Z,7.10
2023-04-26T21:46:56.122Z,7.10
2023-04-26T21:52:24.215Z,7.00
2023-04-26T21:57:52.365Z,7.00
2023-04-26T22:03:20.286Z,7.00
2023-04-26T22:14:16.693Z,6.90
2023-04-26T22:19:44.703Z,6.90
2023-04-26T22:25:12.648Z,6.90
2023-04-26T22:30:40.419Z,6.80
2023-04-26T22:36:08.983Z,6.70
2023-04-26T22:41:36.837Z,6.70
2023-04-26T22:47:04.874Z,6.70
2023-04-26T22:52:32.831Z,6.70
2023-04-26T22:58:00.808Z,6.60
2023-04-26T23:03:28.812Z,6.60
2023-04-26T23:08:57.696Z,6.60
2023-04-26T23:14:27.004Z,6.60
2023-04-26T23:19:55.201Z,6.50
2023-04-26T23:25:24.057Z,6.50
2023-04-26T23:30:51.953Z,6.50
2023-04-26T23:36:19.753Z,6.40
2023-04-26T23:41:47.663Z,6.40
2023-04-26T23:47:15.533Z,6.30
2023-04-26T23:52:44.365Z,6.30
2023-04-26T23:58:12.189Z,6.20
